createdAt,value
2018-05-31T00:00:40.009Z,18.27
2018-05-31T00:01:39.945Z,18.25
2018-05-31T00:02:39.865Z,18.21
2018-05-31T00:03:39.808Z,18.06
2018-05-31T00:04:39.723Z,18.13
2018-05-31T00:05:39.662Z,18.07
2018-05-31T00:06:39.580Z,18.06
2018-05-31T00:07:39.514Z,18.04
2018-05-31T00:08:39.438Z,18.06
2018-05-31T00:09:39.380Z,18.18
2018-05-31T00:10:39.297Z,18.16
2018-05-31T00:11:39.234Z,18.03
2018-05-31T00:12:39.154Z,18.11
2018-05-31T00:13:39.095Z,18.07
2018-05-31T00:14:39.011Z,18.06
2018-05-31T00:15:38.947Z,18.09
2018-05-31T00:16:38.868Z,18.04
2018-05-31T00:17:38.806Z,18.10
2018-05-31T00:18:38.729Z,18.09
2018-05-31T00:19:38.663Z,18.09
2018-05-31T00:20:38.586Z,17.95
2018-05-31T00:21:38.523Z,17.89
2018-05-31T00:22:38.441Z,17.91
2018-05-31T00:23:38.379Z,17.91
2018-05-31T00:24:38.298Z,17.94
2018-05-31T00:25:38.237Z,17.91
2018-05-31T00:26:38.157Z,18.10
2018-05-31T00:27:38.093Z,18.09
2018-05-31T00:28:38.017Z,18.18
2018-05-31T00:29:37.951Z,18.10
2018-05-31T00:30:37.870Z,18.19
2018-05-31T00:31:37.808Z,18.13
2018-05-31T00:32:37.729Z,18.09
2018-05-31T00:33:37.666Z,18.11
2018-05-31T00:34:37.588Z,18.09
2018-05-31T00:35:37.536Z,18.16
2018-05-31T00:36:37.442Z,18.25
2018-05-31T00:37:37.383Z,18.22
2018-05-31T00:38:37.304Z,18.18
2018-05-31T00:39:37.237Z,18.07
2018-05-31T00:40:37.161Z,18.11
2018-05-31T00:41:37.097Z,18.16
2018-05-31T00:42:37.014Z,18.09
2018-05-31T00:43:36.948Z,18.19
2018-05-31T00:44:36.870Z,18.07
2018-05-31T00:45:36.811Z,18.09
2018-05-31T00:46:36.728Z,18.19
2018-05-31T00:47:36.667Z,18.11
2018-05-31T00:48:36.589Z,18.04
2018-05-31T00:49:36.530Z,18.19
2018-05-31T00:50:36.444Z,18.07
2018-05-31T00:51:36.381Z,18.09
2018-05-31T00:52:36.307Z,18.16
2018-05-31T00:53:36.237Z,18.18
2018-05-31T00:54:36.161Z,18.16
2018-05-31T00:55:36.095Z,18.34
2018-05-31T00:56:36.018Z,18.32
2018-05-31T00:57:35.952Z,18.40
2018-05-31T00:58:35.872Z,18.29
2018-05-31T00:59:35.811Z,18.35
2018-05-31T01:00:35.731Z,18.29
2018-05-31T01:01:35.667Z,18.19
2018-05-31T01:02:35.581Z,18.22
2018-05-31T01:03:35.538Z,18.22
2018-05-31T01:04:35.442Z,18.27
2018-05-31T01:05:35.436Z,18.16
2018-05-31T01:06:35.298Z,18.16
2018-05-31T01:07:35.237Z,18.25
2018-05-31T01:08:35.165Z,18.22
2018-05-31T01:09:35.101Z,18.34
2018-05-31T01:10:35.013Z,18.35
2018-05-31T01:11:34.955Z,18.32
2018-05-31T01:12:34.875Z,18.37
2018-05-31T01:13:34.813Z,18.29
2018-05-31T01:14:34.731Z,18.34
2018-05-31T01:15:34.667Z,18.32
2018-05-31T01:16:34.588Z,18.27
2018-05-31T01:17:34.532Z,18.37
2018-05-31T01:18:34.444Z,18.42
2018-05-31T01:19:35.381Z,18.43
2018-05-31T01:20:34.300Z,18.44
2018-05-31T01:21:34.239Z,18.42
2018-05-31T01:22:34.160Z,18.42
2018-05-31T01:23:34.094Z,18.40
2018-05-31T01:24:34.020Z,18.39
2018-05-31T01:25:33.961Z,18.39
2018-05-31T01:26:33.876Z,18.40
2018-05-31T01:27:33.809Z,18.44
2018-05-31T01:28:33.732Z,18.44
2018-05-31T01:29:33.668Z,18.57
2018-05-31T01:30:33.594Z,18.52
2018-05-31T01:31:33.524Z,18.55
2018-05-31T01:32:33.451Z,18.57
2018-05-31T01:33:33.379Z,18.50
2018-05-31T01:34:33.302Z,18.52
2018-05-31T01:35:33.239Z,18.58
2018-05-31T01:36:33.160Z,18.49
2018-05-31T01:37:33.093Z,18.46
2018-05-31T01:38:33.023Z,18.44
2018-05-31T01:39:32.947Z,18.40
2018-05-31T01:40:32.889Z,18.39
2018-05-31T01:41:32.804Z,18.44
2018-05-31T01:42:32.738Z,18.40
2018-05-31T01:43:32.663Z,18.25
2018-05-31T01:44:32.598Z,18.32
2018-05-31T01:45:32.524Z,18.35
2018-05-31T01:46:32.452Z,18.29
2018-05-31T01:47:32.374Z,18.32
2018-05-31T01:48:32.320Z,18.31
2018-05-31T01:49:32.232Z,18.31
2018-05-31T01:50:32.172Z,18.24
2018-05-31T01:51:32.087Z,18.14
2018-05-31T01:52:32.022Z,18.14
2018-05-31T01:53:31.947Z,18.18
2018-05-31T01:54:31.883Z,18.21
2018-05-31T01:55:31.804Z,18.18
2018-05-31T01:56:31.737Z,18.21
2018-05-31T01:57:31.663Z,18.24
2018-05-31T01:58:31.598Z,18.28
2018-05-31T01:59:31.515Z,18.27
2018-05-31T02:00:31.453Z,18.32
2018-05-31T02:01:31.383Z,18.28
2018-05-31T02:02:31.310Z,18.32
2018-05-31T02:03:31.231Z,18.28
2018-05-31T02:04:31.169Z,18.31
2018-05-31T02:05:31.087Z,18.29
2018-05-31T02:06:31.025Z,18.39
2018-05-31T02:07:30.947Z,18.42
2018-05-31T02:08:30.894Z,18.42
2018-05-31T02:09:30.807Z,18.40
2018-05-31T02:10:30.741Z,18.49
2018-05-31T02:11:30.668Z,18.58
2018-05-31T02:12:30.598Z,18.62
2018-05-31T02:13:30.518Z,18.55
2018-05-31T02:14:30.456Z,18.61
2018-05-31T02:15:30.376Z,18.59
2018-05-31T02:16:30.314Z,18.55
2018-05-31T02:17:30.233Z,18.68
2018-05-31T02:18:30.170Z,18.62
2018-05-31T02:19:30.091Z,18.59
2018-05-31T02:20:30.039Z,18.68
2018-05-31T02:21:29.951Z,18.61
2018-05-31T02:22:29.883Z,18.71
2018-05-31T02:23:29.808Z,18.58
2018-05-31T02:24:29.740Z,18.57
2018-05-31T02:25:29.661Z,18.65
2018-05-31T02:26:29.600Z,18.62
2018-05-31T02:27:29.517Z,18.68
2018-05-31T02:28:29.460Z,18.71
2018-05-31T02:29:29.378Z,18.83
2018-05-31T02:30:29.317Z,18.82
2018-05-31T02:31:29.243Z,18.76
2018-05-31T02:32:29.174Z,18.87
2018-05-31T02:33:29.093Z,18.71
2018-05-31T02:34:30.032Z,18.74
2018-05-31T02:35:28.949Z,18.65
2018-05-31T02:36:28.881Z,18.59
2018-05-31T02:37:28.804Z,18.58
2018-05-31T02:38:28.746Z,18.55
2018-05-31T02:39:28.667Z,18.59
2018-05-31T02:40:28.600Z,18.59
2018-05-31T02:41:28.520Z,18.61
2018-05-31T02:42:28.457Z,18.53
2018-05-31T02:43:28.381Z,18.61
2018-05-31T02:44:28.314Z,18.59
2018-05-31T02:45:28.236Z,18.69
2018-05-31T02:46:28.170Z,18.73
2018-05-31T02:47:28.093Z,18.68
2018-05-31T02:48:28.027Z,18.68
2018-05-31T02:49:27.951Z,18.64
2018-05-31T02:50:27.893Z,18.64
2018-05-31T02:51:27.808Z,18.68
2018-05-31T02:52:27.747Z,18.69
2018-05-31T02:53:27.668Z,18.62
2018-05-31T02:54:27.611Z,18.62
2018-05-31T02:55:27.518Z,18.62
2018-05-31T02:56:27.456Z,18.74
2018-05-31T02:57:27.377Z,18.80
2018-05-31T02:58:27.312Z,18.68
2018-05-31T02:59:27.239Z,18.80
2018-05-31T03:00:27.196Z,18.76
2018-05-31T03:01:27.100Z,18.76
2018-05-31T03:02:27.028Z,18.77
2018-05-31T03:03:26.950Z,18.86
2018-05-31T03:04:26.898Z,18.74
2018-05-31T03:05:26.809Z,18.79
2018-05-31T03:06:26.748Z,18.69
2018-05-31T03:07:26.670Z,18.64
2018-05-31T03:08:26.601Z,18.67
2018-05-31T03:09:26.528Z,18.57
2018-05-31T03:10:26.459Z,18.55
2018-05-31T03:11:26.386Z,18.55
2018-05-31T03:12:26.317Z,18.65
2018-05-31T03:13:26.236Z,18.58
2018-05-31T03:14:26.172Z,18.59
2018-05-31T03:15:26.098Z,18.55
2018-05-31T03:16:26.027Z,18.58
2018-05-31T03:17:25.954Z,18.62
2018-05-31T03:18:25.887Z,18.65
2018-05-31T03:19:25.807Z,18.64
2018-05-31T03:20:25.745Z,18.73
2018-05-31T03:21:25.667Z,18.68
2018-05-31T03:22:25.605Z,18.65
2018-05-31T03:23:25.522Z,18.55
2018-05-31T03:24:25.463Z,18.61
2018-05-31T03:25:25.380Z,18.62
2018-05-31T03:26:25.319Z,18.61
2018-05-31T03:27:25.238Z,18.65
2018-05-31T03:28:26.174Z,18.59
2018-05-31T03:29:25.092Z,18.64
2018-05-31T03:30:25.030Z,18.73
2018-05-31T03:31:24.958Z,18.69
2018-05-31T03:32:24.891Z,18.69
2018-05-31T03:33:24.809Z,18.68
2018-05-31T03:34:24.746Z,18.69
2018-05-31T03:35:24.670Z,18.76
2018-05-31T03:36:24.604Z,18.76
2018-05-31T03:37:24.519Z,18.80
2018-05-31T03:38:24.461Z,18.76
2018-05-31T03:39:24.380Z,18.80
2018-05-31T03:40:24.328Z,18.84
2018-05-31T03:41:24.238Z,18.80
2018-05-31T03:42:24.175Z,18.95
2018-05-31T03:43:24.095Z,18.82
2018-05-31T03:44:24.032Z,18.92
2018-05-31T03:45:23.955Z,18.92
2018-05-31T03:46:23.890Z,18.82
2018-05-31T03:47:23.813Z,18.92
2018-05-31T03:48:23.742Z,18.92
2018-05-31T03:49:23.668Z,18.98
2018-05-31T03:50:23.604Z,18.94
2018-05-31T03:51:23.526Z,18.84
2018-05-31T03:52:23.454Z,18.84
2018-05-31T03:53:23.379Z,18.86
2018-05-31T03:54:23.358Z,18.84
2018-05-31T03:55:23.236Z,18.86
2018-05-31T03:56:23.171Z,18.87
2018-05-31T03:57:23.114Z,18.82
2018-05-31T03:58:23.027Z,18.77
2018-05-31T03:59:22.958Z,18.77
2018-05-31T04:00:22.881Z,18.76
2018-05-31T04:01:22.817Z,18.64
2018-05-31T04:02:22.737Z,18.67
2018-05-31T04:03:22.676Z,18.61
2018-05-31T04:04:22.603Z,18.53
2018-05-31T04:05:23.529Z,18.46
2018-05-31T04:06:22.454Z,18.52
2018-05-31T04:07:22.388Z,18.42
2018-05-31T04:08:22.310Z,18.46
2018-05-31T04:09:22.246Z,18.43
2018-05-31T04:10:22.168Z,18.40
2018-05-31T04:11:22.102Z,18.42
2018-05-31T04:12:22.025Z,18.42
2018-05-31T04:13:21.961Z,18.37
2018-05-31T04:14:21.880Z,18.32
2018-05-31T04:15:21.815Z,18.32
2018-05-31T04:16:21.740Z,18.31
2018-05-31T04:17:21.672Z,18.32
2018-05-31T04:18:21.595Z,18.21
2018-05-31T04:19:21.530Z,18.27
2018-05-31T04:20:21.453Z,18.18
2018-05-31T04:21:21.385Z,18.19
2018-05-31T04:22:21.311Z,18.25
2018-05-31T04:23:23.219Z,18.25
2018-05-31T04:24:21.173Z,18.22
2018-05-31T04:25:21.101Z,18.22
2018-05-31T04:26:21.018Z,18.28
2018-05-31T04:27:20.961Z,18.28
2018-05-31T04:28:20.878Z,18.24
2018-05-31T04:29:20.814Z,18.25
2018-05-31T04:30:20.735Z,18.37
2018-05-31T04:31:20.671Z,18.35
2018-05-31T04:32:20.596Z,18.27
2018-05-31T04:33:20.531Z,18.25
2018-05-31T04:34:20.448Z,18.25
2018-05-31T04:35:20.386Z,18.25
2018-05-31T04:36:20.306Z,18.25
2018-05-31T04:37:20.244Z,18.24
2018-05-31T04:38:20.161Z,18.25
2018-05-31T04:39:20.099Z,18.29
2018-05-31T04:40:20.020Z,18.21
2018-05-31T04:41:19.955Z,18.24
2018-05-31T04:42:19.876Z,18.24
2018-05-31T04:43:19.819Z,18.21
2018-05-31T04:44:19.734Z,18.16
2018-05-31T04:45:19.669Z,18.22
2018-05-31T04:46:19.590Z,18.24
2018-05-31T04:47:19.526Z,18.32
2018-05-31T04:48:19.459Z,18.34
2018-05-31T04:49:19.383Z,18.40
2018-05-31T04:50:19.299Z,18.40
2018-05-31T04:51:19.242Z,18.40
2018-05-31T04:52:19.159Z,18.57
2018-05-31T04:53:19.096Z,18.58
2018-05-31T04:54:19.018Z,18.55
2018-05-31T04:55:18.953Z,18.57
2018-05-31T04:56:18.874Z,18.59
2018-05-31T04:57:18.813Z,18.68
2018-05-31T04:58:18.728Z,18.67
2018-05-31T04:59:18.667Z,18.67
2018-05-31T05:00:18.587Z,18.67
2018-05-31T05:01:18.521Z,18.64
2018-05-31T05:02:18.444Z,18.69
2018-05-31T05:03:18.383Z,18.65
2018-05-31T05:04:18.298Z,18.67
2018-05-31T05:05:18.236Z,18.69
2018-05-31T05:06:18.158Z,18.80
2018-05-31T05:07:18.091Z,18.77
2018-05-31T05:08:18.017Z,18.76
2018-05-31T05:09:17.958Z,18.83
2018-05-31T05:10:17.872Z,18.90
2018-05-31T05:11:17.827Z,18.94
2018-05-31T05:12:17.728Z,18.95
2018-05-31T05:13:17.667Z,18.97
2018-05-31T05:14:18.264Z,19.01
2018-05-31T05:15:17.528Z,19.01
2018-05-31T05:16:17.442Z,19.08
2018-05-31T05:17:17.439Z,19.15
2018-05-31T05:18:17.302Z,19.23
2018-05-31T05:19:17.245Z,19.27
2018-05-31T05:20:17.286Z,19.24
2018-05-31T05:21:17.086Z,19.27
2018-05-31T05:22:17.095Z,19.32
2018-05-31T05:23:16.943Z,19.35
2018-05-31T05:24:17.007Z,19.35
2018-05-31T05:25:16.800Z,19.40
2018-05-31T05:26:16.816Z,19.46
2018-05-31T05:27:16.660Z,19.53
2018-05-31T05:28:16.733Z,19.61
2018-05-31T05:29:16.516Z,19.63
2018-05-31T05:30:16.539Z,19.63
2018-05-31T05:31:16.373Z,19.61
2018-05-31T05:32:16.349Z,19.69
2018-05-31T05:33:16.254Z,19.75
2018-05-31T05:34:16.258Z,19.72
2018-05-31T05:35:16.089Z,19.78
2018-05-31T05:36:16.170Z,19.87
2018-05-31T05:37:15.945Z,19.88
2018-05-31T05:38:15.878Z,19.97
2018-05-31T05:39:15.805Z,20.01
2018-05-31T05:40:15.786Z,20.03
2018-05-31T05:41:15.663Z,19.98
2018-05-31T05:42:15.699Z,20.10
2018-05-31T05:43:15.521Z,20.20
2018-05-31T05:44:15.510Z,20.23
2018-05-31T05:45:15.378Z,20.30
2018-05-31T05:46:15.419Z,20.37
2018-05-31T05:47:15.238Z,20.42
2018-05-31T05:48:15.229Z,20.49
2018-05-31T05:49:15.095Z,20.51
2018-05-31T05:50:15.189Z,20.62
2018-05-31T05:51:14.952Z,20.64
2018-05-31T05:52:14.949Z,20.65
2018-05-31T05:53:14.813Z,20.69
2018-05-31T05:54:14.862Z,20.83
2018-05-31T05:55:14.669Z,20.87
2018-05-31T05:56:14.809Z,20.90
2018-05-31T05:57:14.529Z,20.91
2018-05-31T05:58:14.585Z,20.99
2018-05-31T05:59:14.385Z,21.02
2018-05-31T06:00:14.393Z,21.05
2018-05-31T06:01:14.248Z,21.06
2018-05-31T06:02:14.300Z,21.20
2018-05-31T06:03:14.105Z,21.17
2018-05-31T06:04:14.116Z,21.27
2018-05-31T06:05:13.967Z,21.26
2018-05-31T06:06:14.022Z,21.29
2018-05-31T06:07:13.821Z,21.33
2018-05-31T06:08:13.833Z,21.35
2018-05-31T06:09:13.683Z,21.41
2018-05-31T06:10:13.812Z,21.41
2018-05-31T06:11:13.546Z,21.54
2018-05-31T06:12:13.551Z,21.54
2018-05-31T06:13:13.402Z,21.51
2018-05-31T06:14:13.462Z,21.53
2018-05-31T06:15:13.263Z,21.69
2018-05-31T06:16:13.272Z,21.61
2018-05-31T06:17:13.121Z,21.63
2018-05-31T06:18:13.187Z,21.69
2018-05-31T06:19:12.985Z,21.78
2018-05-31T06:20:12.992Z,21.84
2018-05-31T06:21:12.844Z,21.79
2018-05-31T06:22:12.864Z,21.85
2018-05-31T06:23:12.702Z,21.94
2018-05-31T06:24:12.713Z,21.86
2018-05-31T06:25:12.566Z,21.94
2018-05-31T06:26:12.692Z,22.01
2018-05-31T06:27:12.423Z,22.05
2018-05-31T06:28:12.430Z,22.10
2018-05-31T06:29:12.291Z,22.13
2018-05-31T06:30:12.346Z,22.12
2018-05-31T06:31:12.143Z,22.19
2018-05-31T06:32:12.148Z,22.19
2018-05-31T06:33:12.003Z,22.19
2018-05-31T06:34:12.066Z,22.28
2018-05-31T06:35:11.865Z,22.35
2018-05-31T06:36:11.874Z,22.44
2018-05-31T06:37:11.764Z,22.42
2018-05-31T06:38:11.787Z,22.38
2018-05-31T06:39:11.595Z,22.46
2018-05-31T06:40:11.594Z,22.54
2018-05-31T06:41:11.452Z,22.49
2018-05-31T06:42:11.404Z,22.60
2018-05-31T06:43:11.308Z,22.62
2018-05-31T06:44:11.318Z,22.63
2018-05-31T06:45:11.177Z,22.68
2018-05-31T06:46:11.231Z,22.63
2018-05-31T06:47:11.028Z,22.78
2018-05-31T06:48:11.038Z,22.81
2018-05-31T06:49:10.893Z,22.72
2018-05-31T06:50:10.948Z,22.79
2018-05-31T06:51:10.756Z,22.89
2018-05-31T06:52:10.759Z,22.92
2018-05-31T06:53:10.616Z,22.93
2018-05-31T06:54:10.670Z,22.84
2018-05-31T06:55:10.480Z,22.92
2018-05-31T06:56:10.480Z,23.04
2018-05-31T06:57:10.337Z,23.12
2018-05-31T06:58:10.335Z,23.11
2018-05-31T06:59:10.206Z,23.08
2018-05-31T07:00:10.243Z,23.09
2018-05-31T07:01:10.060Z,23.17
2018-05-31T07:02:10.055Z,23.15
2018-05-31T07:03:09.924Z,23.15
2018-05-31T07:04:09.968Z,23.24
2018-05-31T07:05:09.794Z,23.20
2018-05-31T07:06:09.784Z,23.35
2018-05-31T07:07:09.648Z,23.35
2018-05-31T07:08:09.699Z,23.37
2018-05-31T07:09:09.511Z,23.42
2018-05-31T07:10:09.495Z,23.50
2018-05-31T07:11:09.372Z,23.52
2018-05-31T07:12:09.407Z,23.58
2018-05-31T07:13:09.238Z,23.61
2018-05-31T07:14:09.223Z,23.65
2018-05-31T07:15:09.100Z,23.75
2018-05-31T07:16:09.124Z,23.78
2018-05-31T07:17:08.963Z,23.85
2018-05-31T07:18:08.938Z,23.95
2018-05-31T07:19:08.826Z,23.97
2018-05-31T07:20:08.853Z,24.04
2018-05-31T07:21:08.690Z,24.10
2018-05-31T07:22:08.654Z,24.19
2018-05-31T07:23:08.555Z,24.27
2018-05-31T07:24:08.565Z,24.42
2018-05-31T07:25:08.426Z,24.44
2018-05-31T07:26:08.375Z,24.54
2018-05-31T07:27:08.285Z,24.47
2018-05-31T07:28:08.227Z,24.63
2018-05-31T07:29:08.145Z,24.62
2018-05-31T07:30:08.195Z,24.64
2018-05-31T07:31:08.016Z,24.67
2018-05-31T07:32:08.006Z,24.75
2018-05-31T07:33:07.875Z,24.80
2018-05-31T07:34:07.807Z,24.90
2018-05-31T07:35:07.823Z,24.91
2018-05-31T07:36:07.674Z,25.13
2018-05-31T07:37:07.627Z,25.04
2018-05-31T07:38:07.539Z,25.01
2018-05-31T07:39:07.539Z,25.00
2018-05-31T07:40:07.403Z,25.02
2018-05-31T07:41:07.452Z,25.02
2018-05-31T07:42:07.269Z,25.12
2018-05-31T07:43:07.260Z,25.12
2018-05-31T07:44:07.132Z,25.17
2018-05-31T07:45:07.169Z,25.30
2018-05-31T07:46:07.000Z,25.28
2018-05-31T07:47:06.978Z,25.30
2018-05-31T07:48:06.869Z,25.47
2018-05-31T07:49:06.890Z,25.41
2018-05-31T07:50:06.735Z,25.41
2018-05-31T07:51:06.697Z,25.45
2018-05-31T07:52:06.599Z,25.65
2018-05-31T07:53:06.609Z,25.67
2018-05-31T07:54:06.471Z,25.74
2018-05-31T07:55:06.408Z,25.82
2018-05-31T07:56:06.334Z,25.90
2018-05-31T07:57:06.329Z,25.89
2018-05-31T07:58:06.219Z,26.07
2018-05-31T07:59:06.238Z,26.05
2018-05-31T08:00:06.066Z,26.21
2018-05-31T08:01:06.051Z,26.23
2018-05-31T08:02:05.935Z,26.18
2018-05-31T08:03:05.959Z,26.30
2018-05-31T08:04:05.809Z,26.39
2018-05-31T08:05:05.769Z,26.60
2018-05-31T08:06:05.675Z,26.57
2018-05-31T08:07:05.679Z,26.60
2018-05-31T08:08:05.548Z,26.50
2018-05-31T08:09:05.595Z,26.60
2018-05-31T08:10:05.412Z,26.65
2018-05-31T08:11:05.405Z,26.82
2018-05-31T08:12:05.279Z,26.87
2018-05-31T08:13:05.311Z,26.83
2018-05-31T08:14:05.146Z,26.94
2018-05-31T08:15:05.121Z,27.13
2018-05-31T08:16:05.017Z,27.04
2018-05-31T08:17:05.025Z,27.12
2018-05-31T08:18:04.889Z,27.26
2018-05-31T08:19:04.838Z,27.36
2018-05-31T08:20:04.758Z,27.34
2018-05-31T08:21:04.751Z,27.32
2018-05-31T08:22:04.625Z,27.38
2018-05-31T08:23:04.660Z,27.19
2018-05-31T08:24:04.492Z,27.17
2018-05-31T08:25:04.470Z,27.27
2018-05-31T08:26:04.368Z,27.31
2018-05-31T08:27:04.381Z,27.19
2018-05-31T08:28:04.239Z,27.26
2018-05-31T08:29:04.190Z,27.26
2018-05-31T08:30:04.108Z,27.31
2018-05-31T08:31:04.101Z,27.38
2018-05-31T08:32:03.979Z,27.38
2018-05-31T08:33:04.012Z,27.39
2018-05-31T08:34:03.854Z,27.46
2018-05-31T08:35:03.821Z,27.46
2018-05-31T08:36:03.723Z,27.39
2018-05-31T08:37:03.729Z,27.49
2018-05-31T08:38:03.594Z,27.51
2018-05-31T08:39:03.644Z,27.61
2018-05-31T08:40:03.468Z,27.61
2018-05-31T08:41:03.459Z,27.64
2018-05-31T08:42:03.336Z,27.72
2018-05-31T08:43:03.362Z,27.80
2018-05-31T08:44:03.221Z,27.83
2018-05-31T08:45:03.171Z,28.07
2018-05-31T08:46:03.080Z,28.24
2018-05-31T08:47:03.082Z,28.29
2018-05-31T08:48:02.957Z,28.41
2018-05-31T08:49:02.994Z,28.38
2018-05-31T08:50:02.833Z,28.47
2018-05-31T08:51:02.813Z,28.43
2018-05-31T08:52:02.698Z,28.57
2018-05-31T08:53:02.712Z,28.75
2018-05-31T08:54:02.574Z,28.90
2018-05-31T08:55:02.623Z,29.07
2018-05-31T08:56:02.445Z,29.14
2018-05-31T08:57:02.433Z,29.14
2018-05-31T08:58:02.317Z,29.29
2018-05-31T08:59:02.343Z,29.46
2018-05-31T09:00:02.189Z,29.50
2018-05-31T09:01:02.153Z,29.51
2018-05-31T09:02:02.063Z,29.65
2018-05-31T09:03:02.063Z,29.74
2018-05-31T09:04:01.935Z,29.78
2018-05-31T09:05:01.976Z,29.78
2018-05-31T09:06:01.819Z,29.80
2018-05-31T09:07:01.783Z,29.95
2018-05-31T09:08:01.683Z,29.93
2018-05-31T09:09:01.692Z,30.00
2018-05-31T09:10:01.558Z,30.05
2018-05-31T09:11:01.606Z,30.15
2018-05-31T09:12:01.433Z,30.21
2018-05-31T09:13:01.415Z,30.26
2018-05-31T09:14:01.317Z,30.27
2018-05-31T09:15:01.321Z,30.19
2018-05-31T09:16:01.186Z,30.12
2018-05-31T09:17:01.136Z,29.66
2018-05-31T09:18:01.058Z,29.51
2018-05-31T09:19:01.045Z,29.37
2018-05-31T09:20:00.932Z,29.25
2018-05-31T09:21:00.956Z,29.38
2018-05-31T09:22:00.822Z,29.37
2018-05-31T09:23:00.867Z,29.28
2018-05-31T09:24:00.682Z,29.23
2018-05-31T09:25:00.676Z,29.13
2018-05-31T09:26:00.552Z,29.01
2018-05-31T09:27:00.594Z,29.16
2018-05-31T09:28:00.428Z,29.26
2018-05-31T09:29:00.392Z,29.31
2018-05-31T09:30:00.306Z,29.47
2018-05-31T09:31:00.306Z,29.43
2018-05-31T09:32:00.179Z,29.37
2018-05-31T09:33:00.217Z,29.31
2018-05-31T09:34:00.054Z,29.26
2018-05-31T09:35:00.053Z,29.26
2018-05-31T09:35:59.930Z,29.28
2018-05-31T09:36:59.938Z,29.28
2018-05-31T09:37:59.806Z,29.28
2018-05-31T09:38:59.848Z,29.34
2018-05-31T09:39:59.679Z,29.41
2018-05-31T09:40:59.659Z,29.29
2018-05-31T09:41:59.557Z,29.18
2018-05-31T09:42:59.568Z,29.26
2018-05-31T09:43:59.430Z,29.36
2018-05-31T09:44:59.481Z,29.29
2018-05-31T09:45:59.309Z,29.22
2018-05-31T09:46:59.291Z,29.25
2018-05-31T09:47:59.182Z,29.46
2018-05-31T09:48:59.199Z,29.53
2018-05-31T09:49:59.061Z,29.66
2018-05-31T09:50:59.111Z,29.77
2018-05-31T09:51:58.934Z,29.90
2018-05-31T09:52:58.919Z,29.78
2018-05-31T09:53:58.808Z,29.95
2018-05-31T09:54:58.829Z,30.00
2018-05-31T09:55:58.691Z,29.73
2018-05-31T09:56:58.741Z,29.43
2018-05-31T09:57:58.563Z,29.34
2018-05-31T09:58:58.552Z,29.23
2018-05-31T09:59:58.441Z,29.25
2018-05-31T10:00:58.460Z,29.47
2018-05-31T10:01:58.322Z,29.46
2018-05-31T10:02:58.371Z,29.68
2018-05-31T10:03:58.191Z,29.81
2018-05-31T10:04:58.181Z,29.96
2018-05-31T10:05:58.065Z,30.15
2018-05-31T10:06:58.092Z,30.29
2018-05-31T10:07:57.949Z,30.21
2018-05-31T10:08:57.901Z,30.12
2018-05-31T10:09:57.820Z,30.00
2018-05-31T10:10:57.810Z,30.05
2018-05-31T10:11:57.703Z,29.93
2018-05-31T10:12:57.722Z,29.78
2018-05-31T10:13:57.575Z,29.74
2018-05-31T10:14:57.526Z,29.77
2018-05-31T10:15:57.454Z,29.77
2018-05-31T10:16:57.447Z,29.95
2018-05-31T10:17:57.331Z,29.93
2018-05-31T10:18:57.353Z,29.95
2018-05-31T10:19:57.204Z,30.12
2018-05-31T10:20:57.161Z,30.32
2018-05-31T10:21:57.085Z,30.46
2018-05-31T10:22:57.029Z,30.55
2018-05-31T10:23:56.964Z,30.86
2018-05-31T10:24:56.991Z,30.93
2018-05-31T10:25:56.836Z,30.68
2018-05-31T10:26:56.786Z,30.50
2018-05-31T10:27:56.713Z,30.22
2018-05-31T10:28:56.708Z,29.95
2018-05-31T10:29:56.596Z,29.81
2018-05-31T10:30:56.621Z,29.75
2018-05-31T10:31:56.474Z,29.81
2018-05-31T10:32:56.521Z,29.96
2018-05-31T10:33:56.346Z,30.11
2018-05-31T10:34:56.335Z,30.27
2018-05-31T10:35:56.227Z,30.40
2018-05-31T10:36:56.247Z,30.56
2018-05-31T10:37:56.103Z,30.81
2018-05-31T10:38:56.158Z,31.01
2018-05-31T10:39:55.984Z,31.15
2018-05-31T10:40:55.966Z,31.34
2018-05-31T10:41:55.857Z,31.44
2018-05-31T10:42:55.875Z,31.58
2018-05-31T10:43:55.736Z,31.64
2018-05-31T10:44:55.789Z,31.70
2018-05-31T10:45:55.607Z,31.86
2018-05-31T10:46:55.594Z,31.78
2018-05-31T10:47:55.491Z,31.68
2018-05-31T10:48:55.511Z,31.60
2018-05-31T10:49:55.386Z,31.53
2018-05-31T10:50:55.417Z,31.67
2018-05-31T10:51:55.244Z,31.75
2018-05-31T10:52:55.227Z,31.70
2018-05-31T10:53:55.126Z,31.51
2018-05-31T10:54:55.140Z,31.23
2018-05-31T10:55:55.005Z,31.39
2018-05-31T10:56:55.054Z,31.39
2018-05-31T10:57:54.881Z,31.15
2018-05-31T10:58:54.859Z,30.97
2018-05-31T10:59:54.762Z,30.57
2018-05-31T11:00:54.772Z,30.44
2018-05-31T11:01:54.644Z,30.48
2018-05-31T11:02:54.682Z,30.53
2018-05-31T11:03:54.519Z,30.62
2018-05-31T11:04:54.489Z,30.85
2018-05-31T11:05:54.398Z,31.11
2018-05-31T11:06:54.398Z,31.26
2018-05-31T11:07:54.277Z,31.42
2018-05-31T11:08:55.235Z,31.49
2018-05-31T11:09:54.156Z,31.64
2018-05-31T11:10:54.125Z,31.78
2018-05-31T11:11:54.038Z,31.87
2018-05-31T11:12:54.034Z,31.94
2018-05-31T11:13:53.912Z,32.05
2018-05-31T11:14:53.987Z,32.17
2018-05-31T11:15:53.791Z,32.16
2018-05-31T11:16:54.776Z,32.25
2018-05-31T11:17:53.664Z,32.42
2018-05-31T11:18:55.714Z,32.39
2018-05-31T11:19:53.545Z,32.57
2018-05-31T11:20:53.575Z,32.72
2018-05-31T11:21:53.427Z,32.73
2018-05-31T11:22:53.484Z,32.64
2018-05-31T11:23:53.311Z,32.70
2018-05-31T11:24:53.294Z,32.87
2018-05-31T11:25:53.191Z,32.84
2018-05-31T11:26:53.203Z,32.82
2018-05-31T11:27:53.065Z,32.95
2018-05-31T11:28:53.117Z,32.80
2018-05-31T11:29:52.944Z,32.77
2018-05-31T11:30:52.926Z,32.76
2018-05-31T11:31:52.824Z,32.61
2018-05-31T11:32:52.845Z,32.75
2018-05-31T11:33:52.700Z,32.76
2018-05-31T11:34:52.744Z,32.76
2018-05-31T11:35:52.585Z,32.79
2018-05-31T11:36:52.557Z,32.75
2018-05-31T11:37:52.464Z,32.76
2018-05-31T11:38:52.468Z,32.88
2018-05-31T11:39:52.340Z,33.01
2018-05-31T11:40:52.380Z,32.97
2018-05-31T11:41:52.223Z,33.10
2018-05-31T11:42:52.184Z,33.13
2018-05-31T11:43:52.104Z,33.13
2018-05-31T11:44:52.099Z,33.02
2018-05-31T11:45:51.982Z,32.84
2018-05-31T11:46:52.010Z,32.73
2018-05-31T11:47:51.866Z,32.77
2018-05-31T11:48:51.920Z,32.89
2018-05-31T11:49:51.749Z,32.87
2018-05-31T11:50:51.729Z,33.07
2018-05-31T11:51:51.626Z,33.10
2018-05-31T11:52:51.636Z,33.10
2018-05-31T11:53:51.504Z,32.98
2018-05-31T11:54:51.550Z,33.02
2018-05-31T11:55:51.385Z,33.07
2018-05-31T11:56:51.359Z,32.95
2018-05-31T11:57:51.266Z,32.88
2018-05-31T11:58:51.267Z,32.67
2018-05-31T11:59:51.151Z,32.54
2018-05-31T12:00:51.099Z,32.45
2018-05-31T12:01:51.028Z,32.21
2018-05-31T12:02:50.991Z,32.08
2018-05-31T12:03:50.945Z,32.23
2018-05-31T12:04:50.896Z,32.32
2018-05-31T12:05:50.789Z,32.39
2018-05-31T12:06:50.813Z,32.33
2018-05-31T12:07:50.671Z,32.28
2018-05-31T12:08:50.724Z,32.31
2018-05-31T12:09:50.551Z,32.31
2018-05-31T12:10:50.546Z,32.35
2018-05-31T12:11:50.429Z,32.50
2018-05-31T12:12:50.442Z,32.61
2018-05-31T12:13:50.305Z,32.75
2018-05-31T12:14:50.351Z,32.89
2018-05-31T12:15:50.190Z,32.87
2018-05-31T12:16:50.162Z,32.72
2018-05-31T12:17:50.074Z,32.35
2018-05-31T12:18:50.069Z,31.99
2018-05-31T12:19:49.948Z,31.84
2018-05-31T12:20:49.988Z,31.91
2018-05-31T12:21:49.831Z,31.98
2018-05-31T12:22:49.792Z,32.25
2018-05-31T12:23:49.710Z,32.28
2018-05-31T12:24:49.704Z,32.39
2018-05-31T12:25:49.594Z,32.53
2018-05-31T12:26:49.616Z,32.67
2018-05-31T12:27:49.476Z,32.76
2018-05-31T12:28:49.529Z,32.67
2018-05-31T12:29:49.354Z,32.42
2018-05-31T12:30:49.341Z,32.32
2018-05-31T12:31:49.235Z,32.05
2018-05-31T12:32:49.249Z,31.91
2018-05-31T12:33:49.113Z,31.71
2018-05-31T12:34:49.159Z,31.52
2018-05-31T12:35:48.996Z,31.46
2018-05-31T12:36:48.966Z,31.31
2018-05-31T12:37:48.882Z,31.42
2018-05-31T12:38:48.879Z,31.44
2018-05-31T12:39:48.755Z,31.39
2018-05-31T12:40:48.794Z,31.51
2018-05-31T12:41:48.635Z,31.66
2018-05-31T12:42:48.601Z,31.79
2018-05-31T12:43:48.520Z,31.89
2018-05-31T12:44:48.509Z,32.05
2018-05-31T12:45:48.393Z,32.11
2018-05-31T12:46:48.419Z,32.05
2018-05-31T12:47:48.280Z,32.06
2018-05-31T12:48:48.333Z,32.06
2018-05-31T12:49:48.156Z,31.94
2018-05-31T12:50:48.139Z,31.89
2018-05-31T12:51:48.037Z,31.75